Terminal Aerodrome Forecast
Issued by NWS

Home | Current Version | Previous Version | Text Only | Print | Product List | Glossary On
Versions: 1 2 3 4 5 6 7 8 9 10 11 12 13 14 15 16 17
000
FTUS44 KLZK 242300
TAFPBF
TAF
KPBF 242328Z 2500/2524 17008KT P6SM VCSH SCT020 BKN050
     FM250500 17004KT 6SM BR VCSH BKN025 OVC040
     FM251000 17005KT 3SM BR VCSH OVC015
     FM251500 18007KT P6SM BKN025 OVC050=

USA.gov is the U.S. government's official web portal to all federal, state and local government web resources and services.